Terminal Aerodrome Forecast
Issued by NWS

Current Version | Previous Version | Text Only | Print | Product List | Glossary On
Versions: 1 2 3 4 5 6 7 8 9 10 11 12 13 14 15 16 17 18 19 20 21 22 23 24 25
000
FTUS41 KOKX 221137
TAFHPN
TAF
KHPN 221137Z 2212/2312 VRB03KT 6SM -RA BR SCT020 OVC050
      TEMPO 2212/2216 4SM -RA BR BKN020
     FM221600 31009KT P6SM SCT025 BKN070
     FM221800 32015G23KT P6SM FEW070 SCT250
     FM230300 31011G17KT P6SM SKC
     FM230500 31006KT P6SM SKC
     FM230800 VRB04KT P6SM SKC
      AMD NOT SKED=

USA.gov is the U.S. government's official web portal to all federal, state and local government web resources and services.